sensor_id;sensor_type;location;lat;lon;timestamp;temperature;humidity
11264;DHT22;5689;48.798;9.070;2024-01-10T00:00:05;-5.20;99.90
11264;DHT22;5689;48.798;9.070;2024-01-10T00:02:33;-5.10;99.90
11264;DHT22;5689;48.798;9.070;2024-01-10T00:05:01;-5.00;99.90
11264;DHT22;5689;48.798;9.070;2024-01-10T00:07:31;-4.90;99.90
11264;DHT22;5689;48.798;9.070;2024-01-10T00:09:59;-4.90;99.90
11264;DHT22;5689;48.798;9.070;2024-01-10T00:12:29;-5.00;99.90
11264;DHT22;5689;48.798;9.070;2024-01-10T00:15:03;-5.00;99.90
11264;DHT22;5689;48.798;9.070;2024-01-10T00:17:32;-5.00;99.90
11264;DHT22;5689;48.798;9.070;2024-01-10T00:20:02;-5.00;99.90
11264;DHT22;5689;48.798;9.070;2024-01-10T00:22:32;-5.00;99.90
11264;DHT22;5689;48.798;9.070;2024-01-10T00:25:01;-5.10;99.90
11264;DHT22;5689;48.798;9.070;2024-01-10T00:27:29;-5.00;99.90
11264;DHT22;5689;48.798;9.070;2024-01-10T00:29:57;-5.00;99.90
11264;DHT22;5689;48.798;9.070;2024-01-10T00:32:25;-4.50;99.90
11264;DHT22;5689;48.798;9.070;2024-01-10T00:34:53;-4.40;99.90
11264;DHT22;5689;48.798;9.070;2024-01-10T00:37:21;-4.40;99.90
11264;DHT22;5689;48.798;9.070;2024-01-10T00:39:51;-4.30;99.90
11264;DHT22;5689;48.798;9.070;2024-01-10T00:42:20;-4.40;99.90
11264;DHT22;5689;48.798;9.070;2024-01-10T00:44:49;-4.50;99.90
11264;DHT22;5689;48.798;9.070;2024-01-10T00:47:17;-4.60;99.90
11264;DHT22;5689;48.798;9.070;2024-01-10T00:49:46;-4.60;99.90
11264;DHT22;5689;48.798;9.070;2024-01-10T00:52:14;-4.40;99.90
11264;DHT22;5689;48.798;9.070;2024-01-10T00:54:42;-4.40;99.90
11264;DHT22;5689;48.798;9.070;2024-01-10T00:57:14;-4.30;99.90
11264;DHT22;5689;48.798;9.070;2024-01-10T00:59:42;-4.20;99.90
11264;DHT22;5689;48.798;9.070;2024-01-10T01:02:10;-4.20;99.90
11264;DHT22;5689;48.798;9.070;2024-01-10T01:04:38;-4.20;99.90
11264;DHT22;5689;48.798;9.070;2024-01-10T01:07:06;-4.40;99.90
11264;DHT22;5689;48.798;9.070;2024-01-10T01:09:35;-4.60;99.90
11264;DHT22;5689;48.798;9.070;2024-01-10T01:12:03;-4.60;99.90
11264;DHT22;5689;48.798;9.070;2024-01-10T01:14:33;-4.60;99.90
11264;DHT22;5689;48.798;9.070;2024-01-10T01:17:01;-4.60;99.90
11264;DHT22;5689;48.798;9.070;2024-01-10T01:19:29;-4.60;99.90
11264;DHT22;5689;48.798;9.070;2024-01-10T01:21:57;-4.50;99.90
11264;DHT22;5689;48.798;9.070;2024-01-10T01:24:26;-4.50;99.90
11264;DHT22;5689;48.798;9.070;2024-01-10T01:26:54;-4.50;99.90
11264;DHT22;5689;48.798;9.070;2024-01-10T01:29:22;-4.30;99.90
11264;DHT22;5689;48.798;9.070;2024-01-10T01:31:51;-4.20;99.90
11264;DHT22;5689;48.798;9.070;2024-01-10T01:34:20;-4.20;99.90
11264;DHT22;5689;48.798;9.070;2024-01-10T01:36:48;-4.10;99.90
11264;DHT22;5689;48.798;9.070;2024-01-10T01:39:18;-4.00;99.90
11264;DHT22;5689;48.798;9.070;2024-01-10T01:41:46;-3.90;99.90
11264;DHT22;5689;48.798;9.070;2024-01-10T01:44:14;-3.90;99.90
11264;DHT22;5689;48.798;9.070;2024-01-10T01:46:42;-4.00;99.90
11264;DHT22;5689;48.798;9.070;2024-01-10T01:49:12;-4.20;99.90
11264;DHT22;5689;48.798;9.070;2024-01-10T01:51:41;-4.30;99.90
11264;DHT22;5689;48.798;9.070;2024-01-10T01:54:10;-4.30;99.90
11264;DHT22;5689;48.798;9.070;2024-01-10T01:56:39;-4.30;99.90
11264;DHT22;5689;48.798;9.070;2024-01-10T01:59:08;-4.30;99.90
11264;DHT22;5689;48.798;9.070;2024-01-10T02:01:36;-4.30;99.90
11264;DHT22;5689;48.798;9.070;2024-01-10T02:04:04;-4.20;99.90
11264;DHT22;5689;48.798;9.070;2024-01-10T02:06:34;-4.20;99.90
11264;DHT22;5689;48.798;9.070;2024-01-10T02:09:02;-4.10;99.90
11264;DHT22;5689;48.798;9.070;2024-01-10T02:11:31;-3.70;99.90
11264;DHT22;5689;48.798;9.070;2024-01-10T02:13:59;-3.80;99.90
11264;DHT22;5689;48.798;9.070;2024-01-10T02:16:28;-4.10;99.90
11264;DHT22;5689;48.798;9.070;2024-01-10T02:18:56;-4.20;99.90
11264;DHT22;5689;48.798;9.070;2024-01-10T02:21:25;-4.20;99.90
11264;DHT22;5689;48.798;9.070;2024-01-10T02:23:54;-4.30;99.90
11264;DHT22;5689;48.798;9.070;2024-01-10T02:26:24;-4.00;99.90
11264;DHT22;5689;48.798;9.070;2024-01-10T02:28:53;-3.90;99.90
11264;DHT22;5689;48.798;9.070;2024-01-10T02:31:21;-4.20;99.90
11264;DHT22;5689;48.798;9.070;2024-01-10T02:33:50;-4.20;99.90
11264;DHT22;5689;48.798;9.070;2024-01-10T02:36:18;-4.40;99.90
11264;DHT22;5689;48.798;9.070;2024-01-10T02:38:46;-4.50;99.90
11264;DHT22;5689;48.798;9.070;2024-01-10T02:41:14;-4.50;99.90
11264;DHT22;5689;48.798;9.070;2024-01-10T02:43:43;-4.60;99.90
11264;DHT22;5689;48.798;9.070;2024-01-10T02:46:12;-4.60;99.90
11264;DHT22;5689;48.798;9.070;2024-01-10T02:48:40;-4.70;99.90
11264;DHT22;5689;48.798;9.070;2024-01-10T02:51:08;-4.70;99.90
11264;DHT22;5689;48.798;9.070;2024-01-10T02:53:36;-4.40;99.90
11264;DHT22;5689;48.798;9.070;2024-01-10T02:56:05;-4.30;99.80
11264;DHT22;5689;48.798;9.070;2024-01-10T02:58:33;-4.30;99.70
11264;DHT22;5689;48.798;9.070;2024-01-10T03:01:03;-4.40;99.90
11264;DHT22;5689;48.798;9.070;2024-01-10T03:03:31;-4.50;99.90
11264;DHT22;5689;48.798;9.070;2024-01-10T03:05:59;-4.60;99.90
11264;DHT22;5689;48.798;9.070;2024-01-10T03:08:27;-4.60;99.90
11264;DHT22;5689;48.798;9.070;2024-01-10T03:10:55;-4.30;99.90
11264;DHT22;5689;48.798;9.070;2024-01-10T03:13:24;-4.40;99.90
11264;DHT22;5689;48.798;9.070;2024-01-10T03:15:52;-4.30;99.90
11264;DHT22;5689;48.798;9.070;2024-01-10T03:18:22;-4.10;99.90
11264;DHT22;5689;48.798;9.070;2024-01-10T03:20:50;-4.20;99.50
11264;DHT22;5689;48.798;9.070;2024-01-10T03:23:18;-4.20;99.40
11264;DHT22;5689;48.798;9.070;2024-01-10T03:25:47;-4.30;99.60
11264;DHT22;5689;48.798;9.070;2024-01-10T03:28:16;-4.20;99.80
11264;DHT22;5689;48.798;9.070;2024-01-10T03:30:45;-4.30;99.90
11264;DHT22;5689;48.798;9.070;2024-01-10T03:33:13;-4.40;99.90
11264;DHT22;5689;48.798;9.070;2024-01-10T03:35:43;-4.30;99.90
11264;DHT22;5689;48.798;9.070;2024-01-10T03:38:12;-4.20;99.90
11264;DHT22;5689;48.798;9.070;2024-01-10T03:40:43;-4.30;99.90
11264;DHT22;5689;48.798;9.070;2024-01-10T03:43:11;-4.30;99.90
11264;DHT22;5689;48.798;9.070;2024-01-10T03:45:39;-4.20;99.20
11264;DHT22;5689;48.798;9.070;2024-01-10T03:48:07;-4.20;99.20
11264;DHT22;5689;48.798;9.070;2024-01-10T03:50:36;-4.10;99.00
11264;DHT22;5689;48.798;9.070;2024-01-10T03:53:05;-4.00;98.30
11264;DHT22;5689;48.798;9.070;2024-01-10T03:55:34;-3.70;98.20
11264;DHT22;5689;48.798;9.070;2024-01-10T03:58:02;-3.70;97.20
11264;DHT22;5689;48.798;9.070;2024-01-10T04:00:31;-3.70;97.20
11264;DHT22;5689;48.798;9.070;2024-01-10T04:02:59;-3.80;97.20
11264;DHT22;5689;48.798;9.070;2024-01-10T04:05:27;-4.00;97.30
11264;DHT22;5689;48.798;9.070;2024-01-10T04:07:55;-4.00;97.30
11264;DHT22;5689;48.798;9.070;2024-01-10T04:10:25;-3.90;97.50
11264;DHT22;5689;48.798;9.070;2024-01-10T04:12:53;-3.70;97.20
11264;DHT22;5689;48.798;9.070;2024-01-10T04:15:21;-3.70;97.10
11264;DHT22;5689;48.798;9.070;2024-01-10T04:17:50;-3.90;97.30
11264;DHT22;5689;48.798;9.070;2024-01-10T04:20:18;-4.00;97.60
11264;DHT22;5689;48.798;9.070;2024-01-10T04:22:46;-3.90;97.80
11264;DHT22;5689;48.798;9.070;2024-01-10T04:25:14;-4.00;97.90
11264;DHT22;5689;48.798;9.070;2024-01-10T04:27:44;-4.00;98.10
11264;DHT22;5689;48.798;9.070;2024-01-10T04:30:12;-3.90;98.30
11264;DHT22;5689;48.798;9.070;2024-01-10T04:32:41;-3.90;98.10
11264;DHT22;5689;48.798;9.070;2024-01-10T04:35:09;-3.90;98.30
11264;DHT22;5689;48.798;9.070;2024-01-10T04:37:38;-3.70;98.40
11264;DHT22;5689;48.798;9.070;2024-01-10T04:40:08;-3.70;97.70
11264;DHT22;5689;48.798;9.070;2024-01-10T04:42:36;-3.80;97.70
11264;DHT22;5689;48.798;9.070;2024-01-10T04:45:06;-3.60;97.80
11264;DHT22;5689;48.798;9.070;2024-01-10T04:47:35;-3.70;97.50
11264;DHT22;5689;48.798;9.070;2024-01-10T04:50:03;-3.60;97.20
11264;DHT22;5689;48.798;9.070;2024-01-10T04:52:33;-3.70;96.90
11264;DHT22;5689;48.798;9.070;2024-01-10T04:55:01;-3.80;97.00
11264;DHT22;5689;48.798;9.070;2024-01-10T04:57:29;-3.80;97.20
11264;DHT22;5689;48.798;9.070;2024-01-10T04:59:58;-3.60;97.00
11264;DHT22;5689;48.798;9.070;2024-01-10T05:02:28;-3.50;97.50
11264;DHT22;5689;48.798;9.070;2024-01-10T05:04:56;-3.50;97.20
11264;DHT22;5689;48.798;9.070;2024-01-10T05:07:24;-3.70;97.30
11264;DHT22;5689;48.798;9.070;2024-01-10T05:09:52;-3.60;97.90
11264;DHT22;5689;48.798;9.070;2024-01-10T05:12:20;-3.80;97.90
11264;DHT22;5689;48.798;9.070;2024-01-10T05:14:48;-3.90;97.60
11264;DHT22;5689;48.798;9.070;2024-01-10T05:17:17;-3.80;98.70
11264;DHT22;5689;48.798;9.070;2024-01-10T05:19:46;-3.90;97.70
11264;DHT22;5689;48.798;9.070;2024-01-10T05:22:15;-3.90;98.30
11264;DHT22;5689;48.798;9.070;2024-01-10T05:24:43;-3.80;98.80
11264;DHT22;5689;48.798;9.070;2024-01-10T05:27:11;-3.90;98.50
11264;DHT22;5689;48.798;9.070;2024-01-10T05:29:39;-3.90;98.80
11264;DHT22;5689;48.798;9.070;2024-01-10T05:32:07;-4.10;98.80
11264;DHT22;5689;48.798;9.070;2024-01-10T05:34:36;-4.00;99.50
11264;DHT22;5689;48.798;9.070;2024-01-10T05:37:05;-4.00;99.20
11264;DHT22;5689;48.798;9.070;2024-01-10T05:39:33;-4.30;99.50
11264;DHT22;5689;48.798;9.070;2024-01-10T05:42:02;-4.20;99.90
11264;DHT22;5689;48.798;9.070;2024-01-10T05:44:30;-4.30;99.90
11264;DHT22;5689;48.798;9.070;2024-01-10T05:46:58;-4.30;99.90
11264;DHT22;5689;48.798;9.070;2024-01-10T05:49:27;-4.30;99.90
11264;DHT22;5689;48.798;9.070;2024-01-10T05:51:56;-4.30;99.90
11264;DHT22;5689;48.798;9.070;2024-01-10T05:54:26;-4.60;99.90
11264;DHT22;5689;48.798;9.070;2024-01-10T05:56:54;-4.50;99.90
11264;DHT22;5689;48.798;9.070;2024-01-10T05:59:22;-4.50;99.90
11264;DHT22;5689;48.798;9.070;2024-01-10T06:01:54;-4.60;99.90
11264;DHT22;5689;48.798;9.070;2024-01-10T06:04:22;-4.70;99.90
11264;DHT22;5689;48.798;9.070;2024-01-10T06:06:50;-4.60;99.90
11264;DHT22;5689;48.798;9.070;2024-01-10T06:09:18;-4.70;99.90
11264;DHT22;5689;48.798;9.070;2024-01-10T06:11:50;-4.70;99.90
11264;DHT22;5689;48.798;9.070;2024-01-10T06:14:18;-4.80;99.90
11264;DHT22;5689;48.798;9.070;2024-01-10T06:16:46;-4.80;99.90
11264;DHT22;5689;48.798;9.070;2024-01-10T06:19:14;-4.70;99.90
11264;DHT22;5689;48.798;9.070;2024-01-10T06:21:42;-4.90;99.90
11264;DHT22;5689;48.798;9.070;2024-01-10T06:24:10;-5.10;99.90
11264;DHT22;5689;48.798;9.070;2024-01-10T06:26:39;-5.20;99.90
11264;DHT22;5689;48.798;9.070;2024-01-10T06:29:09;-5.10;99.90
11264;DHT22;5689;48.798;9.070;2024-01-10T06:31:37;-5.10;99.90
11264;DHT22;5689;48.798;9.070;2024-01-10T06:34:05;-5.20;99.90
11264;DHT22;5689;48.798;9.070;2024-01-10T06:36:34;-5.30;99.90
11264;DHT22;5689;48.798;9.070;2024-01-10T06:39:05;-5.40;99.90
11264;DHT22;5689;48.798;9.070;2024-01-10T06:41:33;-5.20;99.90
11264;DHT22;5689;48.798;9.070;2024-01-10T06:44:01;-5.30;99.90
11264;DHT22;5689;48.798;9.070;2024-01-10T06:46:32;-5.50;99.90
11264;DHT22;5689;48.798;9.070;2024-01-10T06:49:04;-5.50;99.90
11264;DHT22;5689;48.798;9.070;2024-01-10T06:51:34;-5.50;99.90
11264;DHT22;5689;48.798;9.070;2024-01-10T06:54:03;-5.50;99.90
11264;DHT22;5689;48.798;9.070;2024-01-10T06:56:33;-5.50;99.90
11264;DHT22;5689;48.798;9.070;2024-01-10T06:59:02;-5.50;99.90
11264;DHT22;5689;48.798;9.070;2024-01-10T07:01:31;-5.60;99.90
11264;DHT22;5689;48.798;9.070;2024-01-10T07:04:00;-5.50;99.90
11264;DHT22;5689;48.798;9.070;2024-01-10T07:06:28;-5.60;99.90
11264;DHT22;5689;48.798;9.070;2024-01-10T07:08:57;-5.60;99.90
11264;DHT22;5689;48.798;9.070;2024-01-10T07:11:25;-5.60;99.90
11264;DHT22;5689;48.798;9.070;2024-01-10T07:13:55;-5.60;99.90
11264;DHT22;5689;48.798;9.070;2024-01-10T07:16:23;-5.60;99.90
11264;DHT22;5689;48.798;9.070;2024-01-10T07:18:53;-5.60;99.90
11264;DHT22;5689;48.798;9.070;2024-01-10T07:21:23;-5.50;99.90
11264;DHT22;5689;48.798;9.070;2024-01-10T07:23:52;-5.40;99.90
11264;DHT22;5689;48.798;9.070;2024-01-10T07:26:20;-5.40;99.90
11264;DHT22;5689;48.798;9.070;2024-01-10T07:28:49;-5.40;99.90
11264;DHT22;5689;48.798;9.070;2024-01-10T07:31:17;-5.40;99.90
11264;DHT22;5689;48.798;9.070;2024-01-10T07:33:45;-5.50;99.90
11264;DHT22;5689;48.798;9.070;2024-01-10T07:36:14;-5.50;99.90
11264;DHT22;5689;48.798;9.070;2024-01-10T07:38:42;-5.50;99.90
11264;DHT22;5689;48.798;9.070;2024-01-10T07:41:10;-5.50;99.90
11264;DHT22;5689;48.798;9.070;2024-01-10T07:43:39;-5.50;99.90
11264;DHT22;5689;48.798;9.070;2024-01-10T07:46:07;-5.50;99.90
11264;DHT22;5689;48.798;9.070;2024-01-10T07:48:35;-5.30;99.90
11264;DHT22;5689;48.798;9.070;2024-01-10T07:51:04;-5.20;99.90
11264;DHT22;5689;48.798;9.070;2024-01-10T07:53:34;-4.90;99.90
11264;DHT22;5689;48.798;9.070;2024-01-10T07:56:03;-4.70;99.90
11264;DHT22;5689;48.798;9.070;2024-01-10T07:58:31;-4.60;99.90
11264;DHT22;5689;48.798;9.070;2024-01-10T08:00:59;-4.50;99.90
11264;DHT22;5689;48.798;9.070;2024-01-10T08:03:28;-4.50;99.90
11264;DHT22;5689;48.798;9.070;2024-01-10T08:05:56;-4.50;99.90
11264;DHT22;5689;48.798;9.070;2024-01-10T08:08:24;-4.40;99.90
11264;DHT22;5689;48.798;9.070;2024-01-10T08:10:54;-4.30;99.90
11264;DHT22;5689;48.798;9.070;2024-01-10T08:13:22;-3.80;99.90
11264;DHT22;5689;48.798;9.070;2024-01-10T08:15:50;-3.80;99.90
11264;DHT22;5689;48.798;9.070;2024-01-10T08:18:19;-3.40;99.90
11264;DHT22;5689;48.798;9.070;2024-01-10T08:20:47;-3.40;99.90
11264;DHT22;5689;48.798;9.070;2024-01-10T08:23:15;-3.60;99.90
11264;DHT22;5689;48.798;9.070;2024-01-10T08:25:45;-3.70;99.90
11264;DHT22;5689;48.798;9.070;2024-01-10T08:28:14;-3.50;99.90
11264;DHT22;5689;48.798;9.070;2024-01-10T08:30:43;-3.20;99.90
11264;DHT22;5689;48.798;9.070;2024-01-10T08:33:12;-3.10;99.90
11264;DHT22;5689;48.798;9.070;2024-01-10T08:35:40;-3.20;99.90
11264;DHT22;5689;48.798;9.070;2024-01-10T08:38:09;-3.10;99.90
11264;DHT22;5689;48.798;9.070;2024-01-10T08:40:37;-3.10;99.90
11264;DHT22;5689;48.798;9.070;2024-01-10T08:43:06;-3.00;99.90
11264;DHT22;5689;48.798;9.070;2024-01-10T08:45:35;-3.10;99.90
11264;DHT22;5689;48.798;9.070;2024-01-10T08:48:04;-2.80;99.90
11264;DHT22;5689;48.798;9.070;2024-01-10T08:50:35;-2.90;99.90
11264;DHT22;5689;48.798;9.070;2024-01-10T08:53:03;-2.80;99.90
11264;DHT22;5689;48.798;9.070;2024-01-10T08:55:32;-2.80;99.90
11264;DHT22;5689;48.798;9.070;2024-01-10T08:58:01;-3.00;99.80
11264;DHT22;5689;48.798;9.070;2024-01-10T09:00:29;-3.00;99.90
11264;DHT22;5689;48.798;9.070;2024-01-10T09:03:00;-3.10;99.60
11264;DHT22;5689;48.798;9.070;2024-01-10T09:05:28;-2.90;99.50
11264;DHT22;5689;48.798;9.070;2024-01-10T09:07:57;-2.80;99.50
11264;DHT22;5689;48.798;9.070;2024-01-10T09:10:25;-2.80;99.20
11264;DHT22;5689;48.798;9.070;2024-01-10T09:12:54;-2.80;99.60
11264;DHT22;5689;48.798;9.070;2024-01-10T09:15:23;-2.70;99.60
11264;DHT22;5689;48.798;9.070;2024-01-10T09:17:51;-2.60;99.80
11264;DHT22;5689;48.798;9.070;2024-01-10T09:20:21;-2.70;99.60
11264;DHT22;5689;48.798;9.070;2024-01-10T09:22:51;-2.60;99.70
11264;DHT22;5689;48.798;9.070;2024-01-10T09:25:20;-2.50;99.00
11264;DHT22;5689;48.798;9.070;2024-01-10T09:27:48;-2.60;98.80
11264;DHT22;5689;48.798;9.070;2024-01-10T09:30:16;-2.60;98.70
11264;DHT22;5689;48.798;9.070;2024-01-10T09:32:46;-2.30;99.20
11264;DHT22;5689;48.798;9.070;2024-01-10T09:35:15;-1.70;98.40
11264;DHT22;5689;48.798;9.070;2024-01-10T09:37:46;-1.80;97.80
11264;DHT22;5689;48.798;9.070;2024-01-10T09:40:15;-1.60;97.90
11264;DHT22;5689;48.798;9.070;2024-01-10T09:42:44;-1.40;96.60
11264;DHT22;5689;48.798;9.070;2024-01-10T09:45:12;-1.30;95.90
11264;DHT22;5689;48.798;9.070;2024-01-10T09:47:48;-1.30;95.50
11264;DHT22;5689;48.798;9.070;2024-01-10T09:50:16;-1.40;95.70
11264;DHT22;5689;48.798;9.070;2024-01-10T09:52:50;-1.20;96.20
11264;DHT22;5689;48.798;9.070;2024-01-10T09:55:21;-1.10;95.90
11264;DHT22;5689;48.798;9.070;2024-01-10T09:57:51;-1.10;95.20
11264;DHT22;5689;48.798;9.070;2024-01-10T10:00:20;-1.10;95.20
11264;DHT22;5689;48.798;9.070;2024-01-10T10:02:51;-0.60;94.90
11264;DHT22;5689;48.798;9.070;2024-01-10T10:05:20;-0.50;94.60
11264;DHT22;5689;48.798;9.070;2024-01-10T10:07:52;-0.30;93.50
11264;DHT22;5689;48.798;9.070;2024-01-10T10:10:22;-0.30;94.50
11264;DHT22;5689;48.798;9.070;2024-01-10T10:12:51;0.30;94.40
11264;DHT22;5689;48.798;9.070;2024-01-10T10:15:20;0.70;93.20
11264;DHT22;5689;48.798;9.070;2024-01-10T10:17:50;0.40;92.60
11264;DHT22;5689;48.798;9.070;2024-01-10T10:20:21;0.70;92.90
11264;DHT22;5689;48.798;9.070;2024-01-10T10:23:02;0.90;92.30
11264;DHT22;5689;48.798;9.070;2024-01-10T10:25:32;1.30;92.10
11264;DHT22;5689;48.798;9.070;2024-01-10T10:28:02;1.30;91.90
11264;DHT22;5689;48.798;9.070;2024-01-10T10:30:32;1.60;91.30
11264;DHT22;5689;48.798;9.070;2024-01-10T10:33:00;2.10;91.50
11264;DHT22;5689;48.798;9.070;2024-01-10T10:35:29;2.80;90.50
11264;DHT22;5689;48.798;9.070;2024-01-10T10:37:58;3.70;88.10
11264;DHT22;5689;48.798;9.070;2024-01-10T10:40:28;3.50;83.40
11264;DHT22;5689;48.798;9.070;2024-01-10T10:42:57;4.30;84.20
11264;DHT22;5689;48.798;9.070;2024-01-10T10:45:25;5.50;81.60
11264;DHT22;5689;48.798;9.070;2024-01-10T10:47:57;7.60;76.80
11264;DHT22;5689;48.798;9.070;2024-01-10T10:50:28;8.70;69.70
11264;DHT22;5689;48.798;9.070;2024-01-10T10:52:57;9.10;66.70
11264;DHT22;5689;48.798;9.070;2024-01-10T10:55:29;9.00;66.30
11264;DHT22;5689;48.798;9.070;2024-01-10T10:57:58;9.80;63.50
11264;DHT22;5689;48.798;9.070;2024-01-10T11:00:30;8.60;63.30
11264;DHT22;5689;48.798;9.070;2024-01-10T11:02:59;10.80;61.10
11264;DHT22;5689;48.798;9.070;2024-01-10T11:05:29;8.30;61.80
11264;DHT22;5689;48.798;9.070;2024-01-10T11:07:58;9.60;61.10
11264;DHT22;5689;48.798;9.070;2024-01-10T11:10:34;10.20;58.30
11264;DHT22;5689;48.798;9.070;2024-01-10T11:13:20;10.10;57.20
11264;DHT22;5689;48.798;9.070;2024-01-10T11:16:04;10.60;56.40
11264;DHT22;5689;48.798;9.070;2024-01-10T11:18:49;10.80;56.50
11264;DHT22;5689;48.798;9.070;2024-01-10T11:21:23;10.70;56.70
11264;DHT22;5689;48.798;9.070;2024-01-10T11:23:56;10.00;57.80
11264;DHT22;5689;48.798;9.070;2024-01-10T11:26:28;9.40;60.70
11264;DHT22;5689;48.798;9.070;2024-01-10T11:28:56;9.50;59.70
11264;DHT22;5689;48.798;9.070;2024-01-10T11:31:29;10.30;58.30
11264;DHT22;5689;48.798;9.070;2024-01-10T11:33:59;12.10;53.30
11264;DHT22;5689;48.798;9.070;2024-01-10T11:36:28;10.80;55.60
11264;DHT22;5689;48.798;9.070;2024-01-10T11:38:59;10.70;56.60
11264;DHT22;5689;48.798;9.070;2024-01-10T11:41:31;10.00;57.70
11264;DHT22;5689;48.798;9.070;2024-01-10T11:44:28;9.10;58.30
11264;DHT22;5689;48.798;9.070;2024-01-10T11:46:58;8.30;60.90
11264;DHT22;5689;48.798;9.070;2024-01-10T11:49:27;8.70;61.20
11264;DHT22;5689;48.798;9.070;2024-01-10T11:51:57;9.50;59.30
11264;DHT22;5689;48.798;9.070;2024-01-10T11:54:36;6.70;62.10
11264;DHT22;5689;48.798;9.070;2024-01-10T11:57:12;8.80;63.10
11264;DHT22;5689;48.798;9.070;2024-01-10T11:59:41;10.10;58.80
11264;DHT22;5689;48.798;9.070;2024-01-10T12:02:11;10.30;58.10
11264;DHT22;5689;48.798;9.070;2024-01-10T12:04:40;12.00;56.30
11264;DHT22;5689;48.798;9.070;2024-01-10T12:07:11;13.50;53.20
11264;DHT22;5689;48.798;9.070;2024-01-10T12:09:40;12.40;53.60
11264;DHT22;5689;48.798;9.070;2024-01-10T12:12:10;11.00;55.20
11264;DHT22;5689;48.798;9.070;2024-01-10T12:14:40;10.50;56.00
11264;DHT22;5689;48.798;9.070;2024-01-10T12:17:10;10.20;56.70
11264;DHT22;5689;48.798;9.070;2024-01-10T12:19:38;11.40;55.70
11264;DHT22;5689;48.798;9.070;2024-01-10T12:22:06;11.40;55.50
11264;DHT22;5689;48.798;9.070;2024-01-10T12:24:42;10.50;55.70
11264;DHT22;5689;48.798;9.070;2024-01-10T12:27:13;9.90;58.60
11264;DHT22;5689;48.798;9.070;2024-01-10T12:29:43;10.20;56.00
11264;DHT22;5689;48.798;9.070;2024-01-10T12:32:11;11.10;55.40
11264;DHT22;5689;48.798;9.070;2024-01-10T12:34:40;11.30;54.90
11264;DHT22;5689;48.798;9.070;2024-01-10T12:37:10;10.50;56.70
11264;DHT22;5689;48.798;9.070;2024-01-10T12:39:38;9.50;58.10
11264;DHT22;5689;48.798;9.070;2024-01-10T12:42:07;9.60;59.60
11264;DHT22;5689;48.798;9.070;2024-01-10T12:44:37;8.80;59.20
11264;DHT22;5689;48.798;9.070;2024-01-10T12:47:05;8.20;60.70
11264;DHT22;5689;48.798;9.070;2024-01-10T12:49:34;5.80;64.30
11264;DHT22;5689;48.798;9.070;2024-01-10T12:52:04;4.10;69.00
11264;DHT22;5689;48.798;9.070;2024-01-10T12:54:34;3.10;73.50
11264;DHT22;5689;48.798;9.070;2024-01-10T12:57:03;3.20;74.90
11264;DHT22;5689;48.798;9.070;2024-01-10T12:59:31;3.20;74.40
11264;DHT22;5689;48.798;9.070;2024-01-10T13:02:01;2.90;76.00
11264;DHT22;5689;48.798;9.070;2024-01-10T13:04:29;2.20;77.30
11264;DHT22;5689;48.798;9.070;2024-01-10T13:06:57;1.70;79.30
11264;DHT22;5689;48.798;9.070;2024-01-10T13:09:25;1.80;80.80
11264;DHT22;5689;48.798;9.070;2024-01-10T13:11:53;2.20;79.80
11264;DHT22;5689;48.798;9.070;2024-01-10T13:14:22;2.20;79.20
11264;DHT22;5689;48.798;9.070;2024-01-10T13:16:50;2.00;80.90
11264;DHT22;5689;48.798;9.070;2024-01-10T13:19:21;1.60;81.90
11264;DHT22;5689;48.798;9.070;2024-01-10T13:21:49;1.60;82.30
11264;DHT22;5689;48.798;9.070;2024-01-10T13:24:17;2.00;82.80
11264;DHT22;5689;48.798;9.070;2024-01-10T13:26:46;2.30;81.40
11264;DHT22;5689;48.798;9.070;2024-01-10T13:29:15;2.10;81.40
11264;DHT22;5689;48.798;9.070;2024-01-10T13:31:43;2.70;82.00
11264;DHT22;5689;48.798;9.070;2024-01-10T13:34:11;2.90;80.30
11264;DHT22;5689;48.798;9.070;2024-01-10T13:36:41;2.40;81.70
11264;DHT22;5689;48.798;9.070;2024-01-10T13:39:09;3.00;81.50
11264;DHT22;5689;48.798;9.070;2024-01-10T13:41:42;3.50;79.90
11264;DHT22;5689;48.798;9.070;2024-01-10T13:44:10;4.10;77.20
11264;DHT22;5689;48.798;9.070;2024-01-10T13:46:38;4.80;76.50
11264;DHT22;5689;48.798;9.070;2024-01-10T13:49:06;5.20;73.60
11264;DHT22;5689;48.798;9.070;2024-01-10T13:51:34;5.90;72.10
11264;DHT22;5689;48.798;9.070;2024-01-10T13:54:05;5.30;73.10
11264;DHT22;5689;48.798;9.070;2024-01-10T13:56:33;6.30;71.00
11264;DHT22;5689;48.798;9.070;2024-01-10T13:59:01;4.70;73.00
11264;DHT22;5689;48.798;9.070;2024-01-10T14:01:29;5.40;76.00
11264;DHT22;5689;48.798;9.070;2024-01-10T14:03:58;5.50;74.00
11264;DHT22;5689;48.798;9.070;2024-01-10T14:06:26;6.70;71.40
11264;DHT22;5689;48.798;9.070;2024-01-10T14:08:55;5.60;70.80
11264;DHT22;5689;48.798;9.070;2024-01-10T14:11:26;4.40;74.90
11264;DHT22;5689;48.798;9.070;2024-01-10T14:13:54;3.50;77.00
11264;DHT22;5689;48.798;9.070;2024-01-10T14:16:22;2.40;79.90
11264;DHT22;5689;48.798;9.070;2024-01-10T14:18:50;2.10;81.90
11264;DHT22;5689;48.798;9.070;2024-01-10T14:21:18;1.40;84.00
11264;DHT22;5689;48.798;9.070;2024-01-10T14:23:47;1.40;85.10
11264;DHT22;5689;48.798;9.070;2024-01-10T14:26:15;1.30;85.60
11264;DHT22;5689;48.798;9.070;2024-01-10T14:28:45;0.70;87.10
11264;DHT22;5689;48.798;9.070;2024-01-10T14:31:13;0.80;88.50
11264;DHT22;5689;48.798;9.070;2024-01-10T14:33:44;0.80;88.00
11264;DHT22;5689;48.798;9.070;2024-01-10T14:36:12;0.60;89.40
11264;DHT22;5689;48.798;9.070;2024-01-10T14:38:40;0.60;89.50
11264;DHT22;5689;48.798;9.070;2024-01-10T14:41:09;0.60;89.70
11264;DHT22;5689;48.798;9.070;2024-01-10T14:43:37;0.70;90.00
11264;DHT22;5689;48.798;9.070;2024-01-10T14:46:06;0.70;90.00
11264;DHT22;5689;48.798;9.070;2024-01-10T14:48:35;0.50;90.50
11264;DHT22;5689;48.798;9.070;2024-01-10T14:51:04;0.30;90.60
11264;DHT22;5689;48.798;9.070;2024-01-10T14:53:33;0.30;90.80
11264;DHT22;5689;48.798;9.070;2024-01-10T14:56:03;0.30;90.90
11264;DHT22;5689;48.798;9.070;2024-01-10T14:58:31;0.30;91.00
11264;DHT22;5689;48.798;9.070;2024-01-10T15:00:59;0.50;91.20
11264;DHT22;5689;48.798;9.070;2024-01-10T15:03:29;0.60;90.70
11264;DHT22;5689;48.798;9.070;2024-01-10T15:05:58;0.60;90.80
11264;DHT22;5689;48.798;9.070;2024-01-10T15:08:27;0.70;90.90
11264;DHT22;5689;48.798;9.070;2024-01-10T15:10:55;0.50;91.10
11264;DHT22;5689;48.798;9.070;2024-01-10T15:13:23;0.50;91.30
11264;DHT22;5689;48.798;9.070;2024-01-10T15:15:51;0.40;91.20
11264;DHT22;5689;48.798;9.070;2024-01-10T15:18:20;0.30;91.40
11264;DHT22;5689;48.798;9.070;2024-01-10T15:20:49;0.30;91.60
11264;DHT22;5689;48.798;9.070;2024-01-10T15:23:19;0.20;91.80
11264;DHT22;5689;48.798;9.070;2024-01-10T15:25:47;0.10;92.00
11264;DHT22;5689;48.798;9.070;2024-01-10T15:28:15;0.10;92.60
11264;DHT22;5689;48.798;9.070;2024-01-10T15:30:43;-0.10;92.80
11264;DHT22;5689;48.798;9.070;2024-01-10T15:33:13;-0.30;93.20
11264;DHT22;5689;48.798;9.070;2024-01-10T15:35:41;-0.40;93.60
11264;DHT22;5689;48.798;9.070;2024-01-10T15:38:10;-0.30;93.80
11264;DHT22;5689;48.798;9.070;2024-01-10T15:40:39;-0.40;93.80
11264;DHT22;5689;48.798;9.070;2024-01-10T15:43:08;-0.40;94.00
11264;DHT22;5689;48.798;9.070;2024-01-10T15:45:37;-0.50;94.10
11264;DHT22;5689;48.798;9.070;2024-01-10T15:48:05;-0.50;94.30
11264;DHT22;5689;48.798;9.070;2024-01-10T15:50:33;-0.50;94.60
11264;DHT22;5689;48.798;9.070;2024-01-10T15:53:02;-0.60;94.90
11264;DHT22;5689;48.798;9.070;2024-01-10T15:55:31;-0.60;95.10
11264;DHT22;5689;48.798;9.070;2024-01-10T15:58:01;-0.80;95.40
11264;DHT22;5689;48.798;9.070;2024-01-10T16:00:29;-0.80;95.60